createdAt,value
2019-01-18T00:02:12.713Z,0.20
2019-01-18T00:04:44.507Z,0.10
2019-01-18T00:07:16.385Z,0.10
2019-01-18T00:09:48.231Z,0.10
2019-01-18T00:12:20.066Z,0.10
2019-01-18T00:14:51.867Z,0.10
2019-01-18T00:17:23.727Z,0.10
2019-01-18T00:19:55.566Z,0.10
2019-01-18T00:22:27.423Z,0.10
2019-01-18T00:24:59.354Z,0.10
2019-01-18T00:27:31.176Z,0.10
2019-01-18T00:30:04.923Z,0.20
2019-01-18T00:32:36.823Z,0.20
2019-01-18T00:35:09.032Z,0.10
2019-01-18T00:37:40.906Z,0.10
2019-01-18T00:40:13.827Z,0.20
2019-01-18T00:42:45.667Z,0.20
2019-01-18T00:45:17.725Z,0.30
2019-01-18T00:47:49.606Z,0.30
2019-01-18T00:50:22.396Z,0.30
2019-01-18T00:52:54.199Z,0.30
2019-01-18T00:55:26.008Z,0.30
2019-01-18T00:57:57.887Z,0.50
2019-01-18T01:00:30.297Z,0.70
2019-01-18T01:03:02.073Z,0.80
2019-01-18T01:05:33.972Z,0.90
2019-01-18T01:08:05.877Z,1.00
2019-01-18T01:10:38.937Z,1.00
2019-01-18T01:13:11.432Z,1.10
2019-01-18T01:15:43.406Z,1.20
2019-01-18T01:18:15.301Z,1.20
2019-01-18T01:20:47.130Z,1.30
2019-01-18T01:23:19.054Z,1.40
2019-01-18T01:25:50.852Z,1.50
2019-01-18T01:28:22.723Z,1.50
2019-01-18T01:30:54.648Z,1.60
2019-01-18T01:33:26.457Z,1.70
2019-01-18T01:35:58.318Z,1.70
2019-01-18T01:38:30.167Z,1.70
2019-01-18T01:41:01.966Z,1.70
2019-01-18T01:43:33.835Z,1.70
2019-01-18T01:46:06.163Z,1.70
2019-01-18T01:48:38.042Z,1.80
2019-01-18T01:51:09.470Z,1.80
2019-01-18T01:53:42.535Z,1.80
2019-01-18T01:56:14.484Z,1.80
2019-01-18T01:58:46.323Z,1.80
2019-01-18T02:01:18.266Z,1.90
2019-01-18T02:03:50.040Z,1.90
2019-01-18T02:06:21.805Z,1.90
2019-01-18T02:08:53.658Z,2.00
2019-01-18T02:11:25.474Z,2.00
2019-01-18T02:13:57.387Z,2.10
2019-01-18T02:16:29.207Z,2.10
2019-01-18T02:19:01.091Z,2.00
2019-01-18T02:21:32.994Z,2.00
2019-01-18T02:24:06.257Z,2.00
2019-01-18T02:26:39.121Z,2.00
2019-01-18T02:29:11.071Z,2.10
2019-01-18T02:31:42.979Z,2.10
2019-01-18T02:34:14.783Z,2.00
2019-01-18T02:36:46.588Z,2.00
2019-01-18T02:39:18.449Z,2.00
2019-01-18T02:41:50.323Z,2.00
2019-01-18T02:44:22.136Z,2.00
2019-01-18T02:46:54.000Z,2.00
2019-01-18T02:49:25.905Z,2.00
2019-01-18T02:51:57.822Z,2.00
2019-01-18T02:54:29.688Z,2.00
2019-01-18T02:57:01.446Z,2.00
2019-01-18T02:59:33.205Z,2.00
2019-01-18T03:02:05.086Z,2.00
2019-01-18T03:04:36.961Z,2.00
2019-01-18T03:07:08.779Z,2.00
2019-01-18T03:09:40.688Z,2.00
2019-01-18T03:12:12.567Z,2.00
2019-01-18T03:14:44.364Z,2.00
2019-01-18T03:17:16.219Z,2.00
2019-01-18T03:19:48.093Z,2.00
2019-01-18T03:22:19.979Z,2.00
2019-01-18T03:24:57.043Z,2.00
2019-01-18T03:27:28.757Z,1.90
2019-01-18T03:30:00.665Z,1.90
2019-01-18T03:32:34.169Z,1.90
2019-01-18T03:35:08.142Z,1.80
2019-01-18T03:37:39.991Z,1.70
2019-01-18T03:40:13.299Z,1.70
2019-01-18T03:42:46.223Z,1.70
2019-01-18T03:45:19.419Z,1.60
2019-01-18T03:47:51.603Z,1.60
2019-01-18T03:50:27.589Z,1.60
2019-01-18T03:52:59.670Z,1.50
2019-01-18T03:55:31.618Z,1.50
2019-01-18T03:58:03.511Z,1.50
2019-01-18T04:00:35.610Z,1.60
2019-01-18T04:03:07.516Z,1.60
2019-01-18T04:05:39.343Z,1.70
2019-01-18T04:08:11.194Z,1.70
2019-01-18T04:10:43.144Z,1.60
2019-01-18T04:13:33.328Z,1.60
2019-01-18T04:16:05.296Z,1.70
2019-01-18T04:18:43.051Z,1.70
2019-01-18T04:21:34.394Z,1.70
2019-01-18T04:24:07.320Z,1.70
2019-01-18T04:26:40.451Z,1.70
2019-01-18T04:29:12.433Z,1.70
2019-01-18T04:31:46.346Z,1.70
2019-01-18T04:34:18.122Z,1.70
2019-01-18T04:36:55.082Z,1.70
2019-01-18T04:39:28.989Z,1.70
2019-01-18T04:42:00.919Z,1.60
2019-01-18T04:44:37.518Z,1.60
2019-01-18T04:47:13.933Z,1.60
2019-01-18T04:49:47.261Z,1.50
2019-01-18T04:52:30.585Z,1.60
2019-01-18T04:55:03.891Z,1.60
2019-01-18T04:57:35.867Z,1.60
2019-01-18T05:00:11.220Z,1.60
2019-01-18T05:02:52.406Z,1.60
2019-01-18T05:05:26.325Z,1.70
2019-01-18T05:07:58.281Z,1.70
2019-01-18T05:10:30.558Z,1.70
2019-01-18T05:13:02.383Z,1.70
2019-01-18T05:15:34.578Z,1.80
2019-01-18T05:18:06.599Z,1.70
2019-01-18T05:20:40.081Z,1.70
2019-01-18T05:23:11.961Z,1.80
2019-01-18T05:25:43.862Z,1.80
2019-01-18T05:28:15.800Z,1.70
2019-01-18T05:30:48.029Z,1.80
2019-01-18T05:33:20.059Z,1.80
2019-01-18T05:35:52.268Z,1.80
2019-01-18T05:38:25.414Z,1.80
2019-01-18T05:40:58.293Z,1.80
2019-01-18T05:43:30.167Z,1.80
2019-01-18T05:46:09.152Z,1.80
2019-01-18T05:48:41.026Z,1.80
2019-01-18T05:51:13.037Z,1.90
2019-01-18T05:53:45.209Z,1.90
2019-01-18T05:56:18.839Z,1.90
2019-01-18T05:58:50.729Z,2.00
2019-01-18T06:01:22.874Z,1.90
2019-01-18T06:04:02.118Z,1.90
2019-01-18T06:09:38.987Z,1.90
2019-01-18T06:12:11.185Z,1.90
2019-01-18T06:14:43.329Z,1.90
2019-01-18T06:17:31.159Z,1.80
2019-01-18T06:20:03.116Z,1.80
2019-01-18T06:22:35.010Z,1.80
2019-01-18T06:25:07.047Z,1.80
2019-01-18T06:27:39.140Z,1.80
2019-01-18T06:30:14.707Z,1.80
2019-01-18T06:32:46.874Z,1.80
2019-01-18T06:35:26.063Z,1.80
2019-01-18T06:38:11.151Z,1.90
2019-01-18T06:40:45.915Z,1.80
2019-01-18T06:43:17.749Z,1.80
2019-01-18T06:48:45.831Z,1.70
2019-01-18T06:51:17.678Z,1.70
2019-01-18T06:53:49.511Z,1.70
2019-01-18T06:56:21.303Z,1.70
2019-01-18T06:58:53.154Z,1.60
2019-01-18T07:01:25.080Z,1.70
2019-01-18T07:03:57.027Z,1.70
2019-01-18T07:06:28.935Z,1.60
2019-01-18T07:09:00.777Z,1.50
2019-01-18T07:11:34.794Z,1.50
2019-01-18T07:14:06.691Z,1.40
2019-01-18T07:16:38.530Z,1.30
2019-01-18T07:19:11.473Z,1.20
2019-01-18T07:21:43.345Z,1.10
2019-01-18T07:24:15.150Z,1.10
2019-01-18T07:26:47.018Z,1.00
2019-01-18T07:29:18.846Z,0.90
2019-01-18T07:31:50.723Z,1.00
2019-01-18T07:34:22.731Z,0.90
2019-01-18T07:36:54.578Z,0.90
2019-01-18T07:39:26.428Z,0.80
2019-01-18T07:41:58.360Z,0.90
2019-01-18T07:44:30.255Z,1.00
2019-01-18T07:47:02.163Z,1.10
2019-01-18T07:49:33.906Z,1.20
2019-01-18T07:52:07.974Z,1.30
2019-01-18T07:54:41.265Z,1.40
2019-01-18T07:57:13.672Z,1.60
2019-01-18T07:59:45.823Z,1.60
2019-01-18T08:02:18.788Z,1.80
2019-01-18T08:04:51.035Z,2.00
2019-01-18T08:07:23.136Z,2.10
2019-01-18T08:09:55.137Z,2.20
2019-01-18T08:12:27.068Z,2.20
2019-01-18T08:14:59.409Z,2.20
2019-01-18T08:17:31.396Z,2.30
2019-01-18T08:20:03.858Z,2.40
2019-01-18T08:22:35.865Z,2.40
2019-01-18T08:25:09.173Z,2.50
2019-01-18T08:27:41.229Z,2.50
2019-01-18T08:30:20.819Z,2.60
2019-01-18T08:32:53.125Z,2.70
2019-01-18T08:35:27.595Z,2.90
2019-01-18T08:38:00.006Z,3.00
2019-01-18T08:40:43.438Z,3.10
2019-01-18T08:43:20.212Z,3.10
2019-01-18T08:45:56.075Z,3.20
2019-01-18T08:48:28.084Z,3.30
2019-01-18T08:51:03.868Z,3.30
2019-01-18T08:53:36.232Z,3.30
2019-01-18T08:56:09.420Z,3.20
2019-01-18T08:58:42.867Z,3.20
2019-01-18T09:01:16.130Z,3.10
2019-01-18T09:03:48.148Z,3.20
2019-01-18T09:06:20.405Z,3.10
2019-01-18T09:08:52.501Z,3.20
2019-01-18T09:11:24.662Z,3.20
2019-01-18T09:13:59.864Z,3.20
2019-01-18T09:16:31.732Z,3.20
2019-01-18T09:19:04.811Z,3.20
2019-01-18T09:21:37.560Z,3.20
2019-01-18T09:24:09.826Z,3.20
2019-01-18T09:26:41.889Z,3.20
2019-01-18T09:29:14.238Z,3.10
2019-01-18T09:31:46.543Z,3.00
2019-01-18T09:34:20.099Z,3.00
2019-01-18T09:36:53.917Z,3.10
2019-01-18T09:39:27.521Z,3.10
2019-01-18T09:42:01.393Z,3.20
2019-01-18T09:44:33.332Z,3.30
2019-01-18T09:47:06.753Z,3.50
2019-01-18T09:49:39.125Z,3.70
2019-01-18T09:52:11.079Z,3.80
2019-01-18T09:54:43.328Z,3.80
2019-01-18T09:57:15.896Z,3.90
2019-01-18T09:59:47.935Z,3.90
2019-01-18T10:02:19.894Z,4.00
2019-01-18T10:04:53.067Z,4.00
2019-01-18T10:07:25.269Z,4.00
2019-01-18T10:09:57.186Z,3.90
2019-01-18T10:12:30.455Z,3.80
2019-01-18T10:15:02.430Z,3.80
2019-01-18T10:17:35.888Z,3.80
2019-01-18T10:20:11.078Z,3.80
2019-01-18T10:22:44.721Z,3.80
2019-01-18T10:25:19.337Z,4.00
2019-01-18T10:27:51.769Z,4.10
2019-01-18T10:30:24.998Z,4.40
2019-01-18T10:32:59.881Z,4.70
2019-01-18T10:35:32.056Z,5.00
2019-01-18T10:38:04.450Z,5.40
2019-01-18T10:40:37.134Z,5.70
2019-01-18T10:43:09.082Z,5.70
2019-01-18T10:45:41.551Z,5.90
2019-01-18T10:48:13.985Z,6.20
2019-01-18T10:50:45.976Z,6.40
2019-01-18T10:53:18.250Z,6.50
2019-01-18T10:55:50.896Z,6.40
2019-01-18T10:58:24.210Z,6.30
2019-01-18T11:00:56.390Z,6.20
2019-01-18T11:03:28.544Z,6.10
2019-01-18T11:06:00.556Z,6.00
2019-01-18T11:08:32.685Z,5.90
2019-01-18T11:11:05.904Z,5.90
2019-01-18T11:13:38.280Z,6.00
2019-01-18T11:16:11.603Z,6.10
2019-01-18T11:18:43.820Z,6.10
2019-01-18T11:21:24.676Z,6.20
2019-01-18T11:23:57.212Z,6.10
2019-01-18T11:26:29.757Z,6.00
2019-01-18T11:29:02.144Z,5.90
2019-01-18T11:31:34.654Z,6.00
2019-01-18T11:34:07.928Z,6.00
2019-01-18T11:36:40.427Z,5.80
2019-01-18T11:39:12.714Z,6.00
2019-01-18T11:41:45.323Z,6.50
2019-01-18T11:44:18.343Z,7.20
2019-01-18T11:46:50.913Z,8.00
2019-01-18T11:49:23.163Z,8.80
2019-01-18T11:51:55.275Z,9.20
2019-01-18T11:54:28.278Z,9.00
2019-01-18T11:57:01.086Z,8.90
2019-01-18T11:59:33.344Z,8.40
2019-01-18T12:02:06.010Z,7.50
2019-01-18T12:04:38.379Z,7.10
2019-01-18T12:07:10.510Z,6.50
2019-01-18T12:09:42.706Z,6.30
2019-01-18T12:12:14.711Z,6.40
2019-01-18T12:14:46.712Z,6.60
2019-01-18T12:17:18.802Z,6.70
2019-01-18T12:19:52.093Z,6.80
2019-01-18T12:22:24.621Z,7.20
2019-01-18T12:24:57.058Z,7.50
2019-01-18T12:27:30.079Z,7.80
2019-01-18T12:30:03.518Z,8.40
2019-01-18T12:32:38.023Z,9.00
2019-01-18T12:35:12.230Z,9.60
2019-01-18T12:37:44.635Z,9.70
2019-01-18T12:40:17.636Z,9.50
2019-01-18T12:42:50.175Z,8.80
2019-01-18T12:45:23.026Z,8.10
2019-01-18T12:47:56.282Z,7.70
2019-01-18T12:50:33.586Z,7.30
2019-01-18T12:53:07.359Z,6.80
2019-01-18T12:55:40.921Z,6.60
2019-01-18T12:58:13.165Z,6.40
2019-01-18T13:00:45.532Z,6.20
2019-01-18T13:03:18.810Z,5.90
2019-01-18T13:05:52.718Z,5.70
2019-01-18T13:08:24.806Z,5.70
2019-01-18T13:10:57.001Z,5.80
2019-01-18T13:13:29.391Z,6.00
2019-01-18T13:16:25.206Z,6.20
2019-01-18T13:19:00.331Z,6.40
2019-01-18T13:21:33.531Z,6.80
2019-01-18T13:24:14.188Z,7.20
2019-01-18T13:26:48.852Z,7.60
2019-01-18T13:29:20.779Z,7.60
2019-01-18T13:31:53.782Z,7.20
2019-01-18T13:34:26.197Z,6.70
2019-01-18T13:36:58.211Z,6.10
2019-01-18T13:39:30.438Z,5.60
2019-01-18T13:42:02.902Z,5.30
2019-01-18T13:44:35.430Z,5.20
2019-01-18T13:47:08.197Z,5.00
2019-01-18T13:49:40.316Z,4.80
2019-01-18T13:52:13.336Z,4.60
2019-01-18T13:54:45.357Z,4.60
2019-01-18T13:57:17.563Z,4.70
2019-01-18T13:59:50.292Z,4.70
2019-01-18T14:02:23.026Z,4.80
2019-01-18T14:04:55.685Z,5.00
2019-01-18T14:07:30.239Z,5.10
2019-01-18T14:10:03.774Z,5.40
2019-01-18T14:12:38.928Z,5.70
2019-01-18T14:15:12.020Z,6.10
2019-01-18T14:17:44.135Z,6.30
2019-01-18T14:20:20.793Z,6.40
2019-01-18T14:22:50.577Z,6.60
2019-01-18T14:25:22.602Z,6.60
2019-01-18T14:27:55.832Z,6.70
2019-01-18T14:30:29.360Z,6.70
2019-01-18T14:33:03.822Z,6.60
2019-01-18T14:35:36.580Z,6.70
2019-01-18T14:38:09.754Z,6.70
2019-01-18T14:40:42.450Z,6.70
2019-01-18T14:43:14.368Z,6.60
2019-01-18T14:45:47.786Z,6.70
2019-01-18T14:48:22.251Z,6.80
2019-01-18T14:50:55.570Z,6.80
2019-01-18T14:53:27.712Z,6.70
2019-01-18T14:56:03.399Z,6.70
2019-01-18T14:58:35.605Z,6.60
2019-01-18T15:01:07.857Z,6.70
2019-01-18T15:03:40.278Z,6.70
2019-01-18T15:06:12.665Z,6.70
2019-01-18T15:08:45.709Z,6.40
2019-01-18T15:11:17.791Z,6.30
2019-01-18T15:13:49.991Z,6.00
2019-01-18T15:16:22.070Z,5.80
2019-01-18T15:18:57.357Z,5.50
2019-01-18T15:21:30.777Z,5.20
2019-01-18T15:24:02.792Z,5.00
2019-01-18T15:26:35.437Z,4.80
2019-01-18T15:29:10.561Z,4.50
2019-01-18T15:31:44.765Z,4.20
2019-01-18T15:34:17.131Z,4.00
2019-01-18T15:36:50.602Z,3.70
2019-01-18T15:39:22.819Z,3.50
2019-01-18T15:41:56.284Z,3.30
2019-01-18T15:44:28.388Z,3.10
2019-01-18T15:47:00.941Z,2.90
2019-01-18T15:49:33.103Z,2.70
2019-01-18T15:52:06.461Z,2.60
2019-01-18T15:54:38.916Z,2.40
2019-01-18T15:57:10.911Z,2.30
2019-01-18T15:59:43.084Z,2.10
2019-01-18T16:02:15.222Z,2.00
2019-01-18T16:04:48.752Z,1.80
2019-01-18T16:07:21.044Z,1.70
2019-01-18T16:09:53.371Z,1.60
2019-01-18T16:12:26.545Z,1.50
2019-01-18T16:14:59.166Z,1.40
2019-01-18T16:17:34.671Z,1.40
2019-01-18T16:20:10.894Z,1.30
2019-01-18T16:22:42.991Z,1.30
2019-01-18T16:25:29.184Z,1.30
2019-01-18T16:28:03.138Z,1.30
2019-01-18T16:30:35.490Z,1.30
2019-01-18T16:33:07.942Z,1.20
2019-01-18T16:35:39.792Z,1.10
2019-01-18T16:38:13.828Z,1.00
2019-01-18T16:40:46.114Z,0.90
2019-01-18T16:43:21.943Z,0.80
2019-01-18T16:45:56.145Z,0.70
2019-01-18T16:48:28.322Z,0.70
2019-01-18T16:51:00.652Z,0.70
2019-01-18T16:53:34.128Z,0.80
2019-01-18T16:56:06.521Z,0.80
2019-01-18T16:58:38.585Z,0.70
2019-01-18T17:01:11.603Z,0.70
2019-01-18T17:03:45.384Z,0.60
2019-01-18T17:06:18.481Z,0.60
2019-01-18T17:08:50.666Z,0.50
2019-01-18T17:11:22.634Z,0.30
2019-01-18T17:13:55.772Z,0.20
2019-01-18T17:16:28.711Z,0.10
2019-01-18T17:19:00.800Z,0.00
2019-01-18T17:21:33.661Z,-0.10
2019-01-18T17:24:08.475Z,-0.20
2019-01-18T17:26:40.956Z,-0.20
2019-01-18T17:29:13.224Z,-0.20
2019-01-18T17:31:51.829Z,-0.20
2019-01-18T17:34:26.641Z,-0.30
2019-01-18T17:37:04.812Z,-0.40
2019-01-18T17:40:09.567Z,-0.50
2019-01-18T17:43:22.329Z,-0.60
2019-01-18T17:46:39.900Z,-0.70
2019-01-18T17:50:22.931Z,-0.90
2019-01-18T17:53:21.740Z,-1.00
2019-01-18T17:56:24.035Z,-0.90
2019-01-18T17:59:28.508Z,-0.80
2019-01-18T18:02:17.319Z,-0.80
2019-01-18T18:05:16.516Z,-0.80
2019-01-18T18:08:21.522Z,-0.80
2019-01-18T18:11:37.363Z,-0.80
2019-01-18T18:14:36.518Z,-0.90
2019-01-18T18:17:49.023Z,-1.00
2019-01-18T18:21:11.268Z,-1.20
2019-01-18T18:23:57.242Z,-1.30
2019-01-18T18:27:10.801Z,-1.40
2019-01-18T18:30:27.119Z,-1.40
2019-01-18T18:33:35.336Z,-1.40
2019-01-18T18:36:55.042Z,-1.40
2019-01-18T18:40:12.823Z,-1.50
2019-01-18T18:43:07.081Z,-1.60
2019-01-18T18:46:29.389Z,-1.60
2019-01-18T18:49:57.510Z,-1.60
2019-01-18T18:53:21.272Z,-1.50
2019-01-18T18:56:32.677Z,-1.40
2019-01-18T18:59:42.484Z,-1.40
2019-01-18T19:03:03.672Z,-1.50
2019-01-18T19:06:21.986Z,-1.60
2019-01-18T19:09:49.062Z,-1.60
2019-01-18T19:12:46.494Z,-1.70
2019-01-18T19:15:56.220Z,-1.40
2019-01-18T19:19:10.637Z,-1.40
2019-01-18T19:22:14.746Z,-1.40
2019-01-18T19:25:34.207Z,-1.40
2019-01-18T19:28:31.974Z,-1.40
2019-01-18T19:31:36.593Z,-1.30
2019-01-18T19:35:00.105Z,-1.50
2019-01-18T19:38:10.563Z,-1.50
2019-01-18T19:40:51.739Z,-1.60
2019-01-18T19:43:53.123Z,-1.60
2019-01-18T19:46:59.808Z,-1.50
2019-01-18T19:50:36.726Z,-1.40
2019-01-18T19:54:00.563Z,-1.30
2019-01-18T19:57:09.129Z,-1.30
2019-01-18T20:00:24.769Z,-1.40
2019-01-18T20:03:43.315Z,-1.60
2019-01-18T20:06:57.052Z,-1.60
2019-01-18T20:10:03.862Z,-1.60
2019-01-18T20:13:17.084Z,-1.70
2019-01-18T20:16:43.924Z,-1.70
2019-01-18T20:19:59.712Z,-1.70
2019-01-18T20:22:46.665Z,-1.70
2019-01-18T20:25:27.688Z,-1.70
2019-01-18T20:28:35.541Z,-1.70
2019-01-18T20:31:30.743Z,-1.80
2019-01-18T20:34:52.728Z,-1.80
2019-01-18T20:37:42.830Z,-1.80
2019-01-18T20:40:50.566Z,-1.90
2019-01-18T20:44:04.115Z,-1.80
2019-01-18T20:47:26.191Z,-1.80
2019-01-18T20:50:19.518Z,-1.80
2019-01-18T20:53:35.065Z,-1.80
2019-01-18T20:56:56.755Z,-1.70
2019-01-18T21:00:01.208Z,-1.70
2019-01-18T21:03:14.137Z,-1.70
2019-01-18T21:06:08.852Z,-1.70
2019-01-18T21:09:13.199Z,-1.70
2019-01-18T21:12:36.364Z,-1.70
2019-01-18T21:15:40.207Z,-1.70
2019-01-18T21:19:02.060Z,-1.90
2019-01-18T21:22:19.079Z,-2.10
2019-01-18T21:24:58.226Z,-2.30
2019-01-18T21:28:06.392Z,-2.30
2019-01-18T21:31:20.572Z,-2.30
2019-01-18T21:34:32.838Z,-2.40
2019-01-18T21:37:41.343Z,-2.40
2019-01-18T21:40:39.810Z,-2.40
2019-01-18T21:44:06.151Z,-2.50
2019-01-18T21:47:10.949Z,-2.40
2019-01-18T21:50:01.882Z,-2.30
2019-01-18T21:53:07.866Z,-2.30
2019-01-18T21:56:14.010Z,-2.40
2019-01-18T21:59:44.760Z,-2.40
2019-01-18T22:02:44.771Z,-2.40
2019-01-18T22:05:51.181Z,-2.40
2019-01-18T22:09:02.632Z,-2.30
2019-01-18T22:12:16.524Z,-2.30
2019-01-18T22:15:27.938Z,-2.20
2019-01-18T22:18:38.312Z,-2.20
2019-01-18T22:21:49.602Z,-2.10
2019-01-18T22:25:07.435Z,-2.20
2019-01-18T22:28:22.307Z,-2.20
2019-01-18T22:31:23.459Z,-2.20
2019-01-18T22:34:22.963Z,-2.10
2019-01-18T22:37:31.326Z,-2.20
2019-01-18T22:40:25.533Z,-2.30
2019-01-18T22:43:27.048Z,-2.40
2019-01-18T22:46:34.899Z,-2.40
2019-01-18T22:49:48.372Z,-2.30
2019-01-18T22:53:09.978Z,-2.30
2019-01-18T22:56:11.151Z,-2.20
2019-01-18T22:59:01.841Z,-2.20
2019-01-18T23:01:53.311Z,-2.20
2019-01-18T23:04:55.912Z,-2.30
2019-01-18T23:08:10.122Z,-2.30
2019-01-18T23:11:17.626Z,-2.30
2019-01-18T23:14:39.751Z,-2.30
2019-01-18T23:17:39.890Z,-2.30
2019-01-18T23:20:57.716Z,-2.30
2019-01-18T23:24:15.729Z,-2.30
2019-01-18T23:27:13.807Z,-2.40
2019-01-18T23:30:03.995Z,-2.40
2019-01-18T23:33:09.630Z,-2.40
2019-01-18T23:36:18.658Z,-2.50
2019-01-18T23:39:32.467Z,-2.50
2019-01-18T23:42:36.427Z,-2.50
2019-01-18T23:45:55.391Z,-2.50
2019-01-18T23:49:17.780Z,-2.50
2019-01-18T23:52:36.816Z,-2.50
2019-01-18T23:55:33.532Z,-2.50
2019-01-18T23:58:49.046Z,-2.60
